Daniel, Wyoming
Current Conditions -  °F | °C
As of 5:15 AM on Monday 24 Nov 2014 (Local Time) from KPNA Reporting Station
Haze Haze  
Wind Chill: -12°   Ceiling: 11000
Heat Index: -12°   Visibility: 4mi
Dew Point: -13°   Wind: 0mph
Humidity: 92%   Direction: NA
Pressure: 29.99"   Gusts: NA
Location:  42.86°N, 110.07°W
Report Text: KPNA 241215Z AUTO 00000KT 4SM BR BKN110 M12/M13 A2999 RMK AO2
Loading
Personal Weather Stations






























Interactive Weather Map New forecast layout! Learn more

10-Day Weather Forecast

Advertisements
Track Severe Weather on mobile